sensor_id;sensor_type;location;lat;lon;timestamp;pressure;altitude;pressure_sealevel;temperature;humidity
35519;BME280;21627;48.216;16.482;2023-02-16T00:00:27;101069.06;;;-2.59;100.00
35519;BME280;21627;48.216;16.482;2023-02-16T00:02:55;101085.81;;;-2.49;100.00
35519;BME280;21627;48.216;16.482;2023-02-16T00:05:33;101080.50;;;-2.52;100.00
35519;BME280;21627;48.216;16.482;2023-02-16T00:08:01;101067.06;;;-2.63;100.00
35519;BME280;21627;48.216;16.482;2023-02-16T00:10:34;101071.69;;;-2.57;100.00
35519;BME280;21627;48.216;16.482;2023-02-16T00:13:22;101082.06;;;-2.54;100.00
35519;BME280;21627;48.216;16.482;2023-02-16T00:16:27;101067.72;;;-2.66;100.00
35519;BME280;21627;48.216;16.482;2023-02-16T00:18:55;101081.94;;;-2.56;100.00
35519;BME280;21627;48.216;16.482;2023-02-16T00:21:22;101082.81;;;-2.55;100.00
35519;BME280;21627;48.216;16.482;2023-02-16T00:23:49;101079.84;;;-2.62;100.00
35519;BME280;21627;48.216;16.482;2023-02-16T00:26:23;101092.41;;;-2.51;100.00
35519;BME280;21627;48.216;16.482;2023-02-16T00:28:54;101093.28;;;-2.51;100.00
35519;BME280;21627;48.216;16.482;2023-02-16T00:31:26;101086.69;;;-2.49;100.00
35519;BME280;21627;48.216;16.482;2023-02-16T00:33:55;101091.19;;;-2.45;100.00
35519;BME280;21627;48.216;16.482;2023-02-16T00:36:22;101086.47;;;-2.40;100.00
35519;BME280;21627;48.216;16.482;2023-02-16T00:38:49;101079.88;;;-2.38;100.00
35519;BME280;21627;48.216;16.482;2023-02-16T00:41:22;101064.56;;;-2.40;100.00
35519;BME280;21627;48.216;16.482;2023-02-16T00:44:16;101072.50;;;-2.35;100.00
35519;BME280;21627;48.216;16.482;2023-02-16T00:46:45;101077.44;;;-2.25;100.00
35519;BME280;21627;48.216;16.482;2023-02-16T00:49:19;101082.75;;;-2.22;100.00
35519;BME280;21627;48.216;16.482;2023-02-16T00:51:49;101056.22;;;-2.27;100.00
35519;BME280;21627;48.216;16.482;2023-02-16T00:54:16;101056.44;;;-2.24;100.00
35519;BME280;21627;48.216;16.482;2023-02-16T00:56:44;101061.38;;;-2.13;100.00
35519;BME280;21627;48.216;16.482;2023-02-16T00:59:18;101059.84;;;-2.11;100.00
35519;BME280;21627;48.216;16.482;2023-02-16T01:01:46;101049.72;;;-2.11;100.00
35519;BME280;21627;48.216;16.482;2023-02-16T01:04:22;101061.16;;;-2.05;100.00
35519;BME280;21627;48.216;16.482;2023-02-16T01:06:49;101038.91;;;-2.09;100.00
35519;BME280;21627;48.216;16.482;2023-02-16T01:09:36;101044.53;;;-2.01;100.00
35519;BME280;21627;48.216;16.482;2023-02-16T01:12:21;101042.97;;;-1.99;100.00
35519;BME280;21627;48.216;16.482;2023-02-16T01:14:52;101033.59;;;-2.00;100.00
35519;BME280;21627;48.216;16.482;2023-02-16T01:17:22;101042.09;;;-2.00;100.00
35519;BME280;21627;48.216;16.482;2023-02-16T01:19:49;101035.06;;;-2.04;100.00
35519;BME280;21627;48.216;16.482;2023-02-16T01:22:16;101028.13;;;-2.06;100.00
35519;BME280;21627;48.216;16.482;2023-02-16T01:24:44;101035.34;;;-1.99;100.00
35519;BME280;21627;48.216;16.482;2023-02-16T01:27:12;101026.78;;;-2.01;100.00
35519;BME280;21627;48.216;16.482;2023-02-16T01:29:39;101027.22;;;-2.07;100.00
35519;BME280;21627;48.216;16.482;2023-02-16T01:32:11;101026.34;;;-2.07;100.00
35519;BME280;21627;48.216;16.482;2023-02-16T01:34:38;101018.72;;;-2.07;100.00
35519;BME280;21627;48.216;16.482;2023-02-16T01:37:14;101040.34;;;-2.01;100.00
35519;BME280;21627;48.216;16.482;2023-02-16T01:39:42;101031.72;;;-2.03;100.00
35519;BME280;21627;48.216;16.482;2023-02-16T01:42:46;101022.81;;;-1.98;100.00
35519;BME280;21627;48.216;16.482;2023-02-16T01:45:19;101029.88;;;-1.93;100.00
35519;BME280;21627;48.216;16.482;2023-02-16T01:47:57;101025.78;;;-1.91;100.00
35519;BME280;21627;48.216;16.482;2023-02-16T01:53:48;101026.88;;;-1.88;100.00
35519;BME280;21627;48.216;16.482;2023-02-16T01:56:31;101008.13;;;-1.90;100.00
35519;BME280;21627;48.216;16.482;2023-02-16T01:59:07;100997.00;;;-1.92;100.00
35519;BME280;21627;48.216;16.482;2023-02-16T02:01:59;101008.78;;;-1.81;100.00
35519;BME280;21627;48.216;16.482;2023-02-16T02:15:58;101004.31;;;-1.71;100.00
35519;BME280;21627;48.216;16.482;2023-02-16T02:18:27;100995.84;;;-1.72;100.00
35519;BME280;21627;48.216;16.482;2023-02-16T02:24:35;101004.66;;;-1.67;100.00
35519;BME280;21627;48.216;16.482;2023-02-16T02:41:44;100990.19;;;-1.56;100.00
35519;BME280;21627;48.216;16.482;2023-02-16T02:44:47;100992.25;;;-1.50;100.00
35519;BME280;21627;48.216;16.482;2023-02-16T02:47:16;100986.19;;;-1.53;100.00
35519;BME280;21627;48.216;16.482;2023-02-16T02:49:54;101009.53;;;-1.45;100.00
35519;BME280;21627;48.216;16.482;2023-02-16T02:52:21;101003.69;;;-1.44;100.00
35519;BME280;21627;48.216;16.482;2023-02-16T02:54:49;101006.47;;;-1.41;100.00
35519;BME280;21627;48.216;16.482;2023-02-16T03:00:33;100993.97;;;-1.38;100.00
35519;BME280;21627;48.216;16.482;2023-02-16T03:05:56;100991.75;;;-1.33;100.00
35519;BME280;21627;48.216;16.482;2023-02-16T03:08:29;100996.59;;;-1.36;100.00
35519;BME280;21627;48.216;16.482;2023-02-16T03:14:03;100980.50;;;-1.37;100.00
35519;BME280;21627;48.216;16.482;2023-02-16T03:16:41;100988.84;;;-1.26;100.00
35519;BME280;21627;48.216;16.482;2023-02-16T03:19:13;100998.41;;;-1.22;100.00
35519;BME280;21627;48.216;16.482;2023-02-16T03:22:02;100998.53;;;-1.20;100.00
35519;BME280;21627;48.216;16.482;2023-02-16T03:24:52;100994.44;;;-1.18;100.00
35519;BME280;21627;48.216;16.482;2023-02-16T03:27:39;101004.78;;;-1.15;100.00
35519;BME280;21627;48.216;16.482;2023-02-16T03:30:27;100995.41;;;-1.16;100.00
35519;BME280;21627;48.216;16.482;2023-02-16T03:32:55;100990.56;;;-1.13;100.00
35519;BME280;21627;48.216;16.482;2023-02-16T03:35:23;100986.91;;;-1.17;100.00
35519;BME280;21627;48.216;16.482;2023-02-16T03:37:51;100989.38;;;-1.18;100.00
35519;BME280;21627;48.216;16.482;2023-02-16T03:40:18;100990.03;;;-1.21;100.00
35519;BME280;21627;48.216;16.482;2023-02-16T03:43:05;100998.16;;;-1.13;100.00
35519;BME280;21627;48.216;16.482;2023-02-16T03:45:35;100988.47;;;-1.19;100.00
35519;BME280;21627;48.216;16.482;2023-02-16T03:48:04;100993.16;;;-1.12;100.00
35519;BME280;21627;48.216;16.482;2023-02-16T03:50:31;101002.66;;;-1.09;100.00
35519;BME280;21627;48.216;16.482;2023-02-16T03:52:59;100998.56;;;-1.07;100.00
35519;BME280;21627;48.216;16.482;2023-02-16T03:58:09;100997.00;;;-1.05;100.00
35519;BME280;21627;48.216;16.482;2023-02-16T04:00:38;100970.03;;;-1.16;100.00
35519;BME280;21627;48.216;16.482;2023-02-16T04:03:07;100993.59;;;-1.05;100.00
35519;BME280;21627;48.216;16.482;2023-02-16T04:05:38;101000.84;;;-0.98;100.00
35519;BME280;21627;48.216;16.482;2023-02-16T04:08:07;100976.78;;;-1.03;100.00
35519;BME280;21627;48.216;16.482;2023-02-16T04:10:36;100987.47;;;-0.96;100.00
35519;BME280;21627;48.216;16.482;2023-02-16T04:13:04;100990.28;;;-0.91;100.00
35519;BME280;21627;48.216;16.482;2023-02-16T04:15:31;100986.19;;;-0.89;100.00
35519;BME280;21627;48.216;16.482;2023-02-16T04:17:59;100975.66;;;-0.95;100.00
35519;BME280;21627;48.216;16.482;2023-02-16T04:20:31;100981.72;;;-0.93;100.00
35519;BME280;21627;48.216;16.482;2023-02-16T04:23:00;100991.38;;;-0.88;100.00
35519;BME280;21627;48.216;16.482;2023-02-16T04:25:28;100998.31;;;-0.85;100.00
35519;BME280;21627;48.216;16.482;2023-02-16T04:27:56;100994.81;;;-0.87;100.00
35519;BME280;21627;48.216;16.482;2023-02-16T04:30:27;100997.22;;;-0.89;100.00
35519;BME280;21627;48.216;16.482;2023-02-16T04:32:56;100996.84;;;-0.95;100.00
35519;BME280;21627;48.216;16.482;2023-02-16T04:35:24;100979.31;;;-1.03;100.00
35519;BME280;21627;48.216;16.482;2023-02-16T04:37:52;100989.91;;;-0.97;100.00
35519;BME280;21627;48.216;16.482;2023-02-16T04:40:19;100980.13;;;-1.04;100.00
35519;BME280;21627;48.216;16.482;2023-02-16T04:42:46;100984.63;;;-1.00;100.00
35519;BME280;21627;48.216;16.482;2023-02-16T04:45:14;100977.06;;;-1.12;100.00
35519;BME280;21627;48.216;16.482;2023-02-16T04:47:41;100990.06;;;-1.07;100.00
35519;BME280;21627;48.216;16.482;2023-02-16T04:50:09;100985.47;;;-1.13;100.00
35519;BME280;21627;48.216;16.482;2023-02-16T04:52:37;100990.56;;;-1.13;100.00
35519;BME280;21627;48.216;16.482;2023-02-16T04:55:06;100993.47;;;-1.07;100.00
35519;BME280;21627;48.216;16.482;2023-02-16T04:57:39;100968.16;;;-1.19;100.00
35519;BME280;21627;48.216;16.482;2023-02-16T05:00:09;100986.34;;;-1.13;100.00
35519;BME280;21627;48.216;16.482;2023-02-16T05:02:37;100998.94;;;-1.01;100.00
35519;BME280;21627;48.216;16.482;2023-02-16T05:05:05;100989.41;;;-1.05;100.00
35519;BME280;21627;48.216;16.482;2023-02-16T05:07:33;100987.22;;;-1.12;100.00
35519;BME280;21627;48.216;16.482;2023-02-16T05:10:07;100978.22;;;-1.20;100.00
35519;BME280;21627;48.216;16.482;2023-02-16T05:12:34;100978.03;;;-1.23;100.00
35519;BME280;21627;48.216;16.482;2023-02-16T05:15:20;100984.56;;;-1.14;100.00
35519;BME280;21627;48.216;16.482;2023-02-16T05:17:47;100977.75;;;-1.15;100.00
35519;BME280;21627;48.216;16.482;2023-02-16T05:20:15;100970.69;;;-1.19;100.00
35519;BME280;21627;48.216;16.482;2023-02-16T05:22:45;100979.72;;;-1.11;100.00
35519;BME280;21627;48.216;16.482;2023-02-16T05:25:13;100979.81;;;-1.09;100.00
35519;BME280;21627;48.216;16.482;2023-02-16T05:27:40;100977.19;;;-1.11;100.00
35519;BME280;21627;48.216;16.482;2023-02-16T05:30:08;100972.56;;;-1.16;100.00
35519;BME280;21627;48.216;16.482;2023-02-16T05:32:36;100980.59;;;-1.10;100.00
35519;BME280;21627;48.216;16.482;2023-02-16T05:35:03;100985.56;;;-1.12;100.00
35519;BME280;21627;48.216;16.482;2023-02-16T05:37:31;100990.84;;;-1.09;100.00
35519;BME280;21627;48.216;16.482;2023-02-16T05:39:58;100987.84;;;-1.03;100.00
35519;BME280;21627;48.216;16.482;2023-02-16T05:42:25;100981.84;;;-1.03;100.00
35519;BME280;21627;48.216;16.482;2023-02-16T05:44:52;100984.31;;;-1.05;100.00
35519;BME280;21627;48.216;16.482;2023-02-16T05:47:19;100986.94;;;-1.03;100.00
35519;BME280;21627;48.216;16.482;2023-02-16T05:49:46;100985.50;;;-1.00;100.00
35519;BME280;21627;48.216;16.482;2023-02-16T05:52:13;100992.31;;;-0.99;100.00
35519;BME280;21627;48.216;16.482;2023-02-16T05:54:41;100980.78;;;-1.07;100.00
35519;BME280;21627;48.216;16.482;2023-02-16T05:57:09;100975.72;;;-1.07;100.00
35519;BME280;21627;48.216;16.482;2023-02-16T05:59:36;100980.69;;;-1.09;100.00
35519;BME280;21627;48.216;16.482;2023-02-16T06:02:04;100969.47;;;-1.12;100.00
35519;BME280;21627;48.216;16.482;2023-02-16T06:04:31;100993.44;;;-0.95;100.00
35519;BME280;21627;48.216;16.482;2023-02-16T06:06:58;100984.13;;;-1.08;100.00
35519;BME280;21627;48.216;16.482;2023-02-16T06:09:25;100994.97;;;-0.97;100.00
35519;BME280;21627;48.216;16.482;2023-02-16T06:11:53;100988.34;;;-0.95;100.00
35519;BME280;21627;48.216;16.482;2023-02-16T06:14:20;100987.06;;;-0.89;100.00
35519;BME280;21627;48.216;16.482;2023-02-16T06:16:49;100981.63;;;-0.81;100.00
35519;BME280;21627;48.216;16.482;2023-02-16T06:19:18;100974.09;;;-0.93;100.00
35519;BME280;21627;48.216;16.482;2023-02-16T06:21:46;100985.31;;;-0.90;100.00
35519;BME280;21627;48.216;16.482;2023-02-16T06:24:16;100990.59;;;-0.87;100.00
35519;BME280;21627;48.216;16.482;2023-02-16T06:26:47;100995.97;;;-0.82;100.00
35519;BME280;21627;48.216;16.482;2023-02-16T06:29:14;100983.97;;;-0.84;100.00
35519;BME280;21627;48.216;16.482;2023-02-16T06:31:42;100987.50;;;-0.82;100.00
35519;BME280;21627;48.216;16.482;2023-02-16T06:34:09;100989.84;;;-0.85;100.00
35519;BME280;21627;48.216;16.482;2023-02-16T06:36:36;100993.75;;;-0.77;100.00
35519;BME280;21627;48.216;16.482;2023-02-16T06:39:06;101014.63;;;-0.68;100.00
35519;BME280;21627;48.216;16.482;2023-02-16T06:41:33;101009.09;;;-0.62;100.00
35519;BME280;21627;48.216;16.482;2023-02-16T06:44:07;100992.47;;;-0.71;100.00
35519;BME280;21627;48.216;16.482;2023-02-16T06:46:39;101002.56;;;-0.59;100.00
35519;BME280;21627;48.216;16.482;2023-02-16T06:49:11;100994.38;;;-0.55;100.00
35519;BME280;21627;48.216;16.482;2023-02-16T06:51:39;101001.78;;;-0.45;100.00
35519;BME280;21627;48.216;16.482;2023-02-16T06:54:06;101005.78;;;-0.48;100.00
35519;BME280;21627;48.216;16.482;2023-02-16T06:56:34;101014.56;;;-0.43;100.00
35519;BME280;21627;48.216;16.482;2023-02-16T06:59:07;101011.56;;;-0.37;100.00
35519;BME280;21627;48.216;16.482;2023-02-16T07:01:34;101024.66;;;-0.31;100.00
35519;BME280;21627;48.216;16.482;2023-02-16T07:04:01;101011.94;;;-0.31;100.00
35519;BME280;21627;48.216;16.482;2023-02-16T07:06:29;101019.28;;;-0.23;100.00
35519;BME280;21627;48.216;16.482;2023-02-16T07:08:58;101010.19;;;-0.19;100.00
35519;BME280;21627;48.216;16.482;2023-02-16T07:11:25;101008.81;;;-0.14;100.00
35519;BME280;21627;48.216;16.482;2023-02-16T07:13:52;101001.19;;;-0.14;100.00
35519;BME280;21627;48.216;16.482;2023-02-16T07:16:20;101015.44;;;-0.03;100.00
35519;BME280;21627;48.216;16.482;2023-02-16T07:18:47;101011.53;;;0.03;100.00
35519;BME280;21627;48.216;16.482;2023-02-16T07:21:14;101019.25;;;0.04;100.00
35519;BME280;21627;48.216;16.482;2023-02-16T07:23:42;101008.91;;;0.01;100.00
35519;BME280;21627;48.216;16.482;2023-02-16T07:26:09;101012.28;;;0.15;100.00
35519;BME280;21627;48.216;16.482;2023-02-16T07:28:37;101003.72;;;0.13;100.00
35519;BME280;21627;48.216;16.482;2023-02-16T07:31:07;101021.19;;;0.21;100.00
35519;BME280;21627;48.216;16.482;2023-02-16T07:33:44;101014.13;;;0.31;100.00
35519;BME280;21627;48.216;16.482;2023-02-16T07:36:12;101004.34;;;0.24;100.00
35519;BME280;21627;48.216;16.482;2023-02-16T07:38:43;101015.00;;;0.31;100.00
35519;BME280;21627;48.216;16.482;2023-02-16T07:41:10;101012.06;;;0.38;100.00
35519;BME280;21627;48.216;16.482;2023-02-16T07:43:39;101010.66;;;0.43;100.00
35519;BME280;21627;48.216;16.482;2023-02-16T07:46:09;101000.91;;;0.36;100.00
35519;BME280;21627;48.216;16.482;2023-02-16T07:48:36;101007.16;;;0.41;100.00
35519;BME280;21627;48.216;16.482;2023-02-16T07:51:07;100986.63;;;0.38;100.00
35519;BME280;21627;48.216;16.482;2023-02-16T07:53:34;101003.31;;;0.48;100.00
35519;BME280;21627;48.216;16.482;2023-02-16T07:56:02;100998.41;;;0.51;100.00
35519;BME280;21627;48.216;16.482;2023-02-16T07:58:29;101002.38;;;0.61;100.00
35519;BME280;21627;48.216;16.482;2023-02-16T08:01:10;101008.81;;;0.69;100.00
35519;BME280;21627;48.216;16.482;2023-02-16T08:03:41;101008.97;;;0.72;100.00
35519;BME280;21627;48.216;16.482;2023-02-16T08:06:09;101008.47;;;0.78;100.00
35519;BME280;21627;48.216;16.482;2023-02-16T08:08:37;101009.72;;;0.84;100.00
35519;BME280;21627;48.216;16.482;2023-02-16T08:13:42;101015.63;;;0.98;100.00
35519;BME280;21627;48.216;16.482;2023-02-16T08:16:19;101010.34;;;0.95;100.00
35519;BME280;21627;48.216;16.482;2023-02-16T08:18:51;100997.19;;;1.02;100.00
35519;BME280;21627;48.216;16.482;2023-02-16T08:21:23;101009.66;;;1.13;100.00
35519;BME280;21627;48.216;16.482;2023-02-16T08:24:04;101000.72;;;1.19;100.00
35519;BME280;21627;48.216;16.482;2023-02-16T08:26:39;101018.88;;;1.25;100.00
35519;BME280;21627;48.216;16.482;2023-02-16T08:29:10;101013.19;;;1.29;100.00
35519;BME280;21627;48.216;16.482;2023-02-16T08:31:40;101018.72;;;1.37;100.00
35519;BME280;21627;48.216;16.482;2023-02-16T08:34:08;101012.75;;;1.37;100.00
35519;BME280;21627;48.216;16.482;2023-02-16T08:36:37;101021.34;;;1.54;100.00
35519;BME280;21627;48.216;16.482;2023-02-16T08:39:18;101009.66;;;1.57;100.00
35519;BME280;21627;48.216;16.482;2023-02-16T08:41:47;101022.56;;;1.75;100.00
35519;BME280;21627;48.216;16.482;2023-02-16T08:44:17;101016.84;;;1.79;100.00
35519;BME280;21627;48.216;16.482;2023-02-16T08:46:47;101023.31;;;1.89;100.00
35519;BME280;21627;48.216;16.482;2023-02-16T08:49:17;101018.97;;;2.03;100.00
35519;BME280;21627;48.216;16.482;2023-02-16T08:51:48;101010.19;;;1.98;100.00
35519;BME280;21627;48.216;16.482;2023-02-16T08:54:19;101019.69;;;2.00;100.00
35519;BME280;21627;48.216;16.482;2023-02-16T08:56:48;101012.66;;;1.96;100.00
35519;BME280;21627;48.216;16.482;2023-02-16T08:59:18;101020.66;;;2.02;100.00
35519;BME280;21627;48.216;16.482;2023-02-16T09:01:49;101022.50;;;2.05;100.00
35519;BME280;21627;48.216;16.482;2023-02-16T09:04:20;101016.44;;;2.03;100.00
35519;BME280;21627;48.216;16.482;2023-02-16T09:06:47;101018.53;;;2.10;100.00
35519;BME280;21627;48.216;16.482;2023-02-16T09:09:19;101018.69;;;2.13;100.00
35519;BME280;21627;48.216;16.482;2023-02-16T09:11:47;101027.50;;;2.34;100.00
35519;BME280;21627;48.216;16.482;2023-02-16T09:14:17;101023.69;;;2.43;100.00
35519;BME280;21627;48.216;16.482;2023-02-16T09:16:45;101035.97;;;2.50;100.00
35519;BME280;21627;48.216;16.482;2023-02-16T09:19:16;101033.66;;;2.71;100.00
35519;BME280;21627;48.216;16.482;2023-02-16T09:21:48;101025.38;;;2.75;100.00
35519;BME280;21627;48.216;16.482;2023-02-16T09:24:17;101030.56;;;2.60;100.00
35519;BME280;21627;48.216;16.482;2023-02-16T09:26:45;101038.78;;;2.71;100.00
35519;BME280;21627;48.216;16.482;2023-02-16T09:29:13;101032.31;;;2.77;100.00
35519;BME280;21627;48.216;16.482;2023-02-16T09:31:41;101021.13;;;2.92;100.00
35519;BME280;21627;48.216;16.482;2023-02-16T09:34:21;101032.28;;;3.10;100.00
35519;BME280;21627;48.216;16.482;2023-02-16T09:36:50;101016.03;;;3.26;100.00
35519;BME280;21627;48.216;16.482;2023-02-16T09:39:24;101013.63;;;3.29;100.00
35519;BME280;21627;48.216;16.482;2023-02-16T09:45:15;101033.63;;;3.72;100.00
35519;BME280;21627;48.216;16.482;2023-02-16T09:47:49;101007.66;;;3.82;100.00
35519;BME280;21627;48.216;16.482;2023-02-16T09:50:29;101014.25;;;3.95;100.00
35519;BME280;21627;48.216;16.482;2023-02-16T09:53:39;101014.66;;;4.22;100.00
35519;BME280;21627;48.216;16.482;2023-02-16T09:56:17;101013.13;;;4.45;97.95
35519;BME280;21627;48.216;16.482;2023-02-16T09:59:15;101009.19;;;4.71;96.06
35519;BME280;21627;48.216;16.482;2023-02-16T10:05:12;101011.34;;;4.82;91.30
35519;BME280;21627;48.216;16.482;2023-02-16T10:08:11;101006.75;;;4.74;91.60
35519;BME280;21627;48.216;16.482;2023-02-16T10:11:07;101004.09;;;4.73;91.01
35519;BME280;21627;48.216;16.482;2023-02-16T10:14:03;101004.44;;;4.81;92.43
35519;BME280;21627;48.216;16.482;2023-02-16T10:16:44;101012.72;;;4.94;92.55
35519;BME280;21627;48.216;16.482;2023-02-16T10:22:11;100990.94;;;5.25;91.12
35519;BME280;21627;48.216;16.482;2023-02-16T10:27:43;100993.34;;;5.01;90.02
35519;BME280;21627;48.216;16.482;2023-02-16T10:33:15;100977.38;;;5.07;91.44
35519;BME280;21627;48.216;16.482;2023-02-16T10:35:44;100976.19;;;5.19;90.43
35519;BME280;21627;48.216;16.482;2023-02-16T10:41:35;100963.50;;;5.23;90.23
35519;BME280;21627;48.216;16.482;2023-02-16T10:46:40;100962.09;;;5.31;88.12
35519;BME280;21627;48.216;16.482;2023-02-16T10:49:13;100974.75;;;5.47;87.10
35519;BME280;21627;48.216;16.482;2023-02-16T10:51:46;100963.59;;;5.47;88.77
35519;BME280;21627;48.216;16.482;2023-02-16T10:57:05;100957.91;;;5.54;87.59
35519;BME280;21627;48.216;16.482;2023-02-16T10:59:44;100941.56;;;5.52;87.72
35519;BME280;21627;48.216;16.482;2023-02-16T11:04:47;100942.53;;;5.76;83.98
35519;BME280;21627;48.216;16.482;2023-02-16T11:07:19;100936.63;;;5.56;84.79
35519;BME280;21627;48.216;16.482;2023-02-16T11:09:51;100932.63;;;5.63;87.42
35519;BME280;21627;48.216;16.482;2023-02-16T11:12:42;100927.31;;;5.81;87.42
35519;BME280;21627;48.216;16.482;2023-02-16T11:18:00;100937.72;;;6.06;84.87
35519;BME280;21627;48.216;16.482;2023-02-16T11:23:27;100904.28;;;6.05;83.77
35519;BME280;21627;48.216;16.482;2023-02-16T11:26:19;100933.59;;;6.34;84.77
35519;BME280;21627;48.216;16.482;2023-02-16T11:28:48;100937.19;;;6.39;85.25
35519;BME280;21627;48.216;16.482;2023-02-16T11:31:37;100925.81;;;6.57;83.08
35519;BME280;21627;48.216;16.482;2023-02-16T11:36:45;100925.81;;;6.81;79.20
35519;BME280;21627;48.216;16.482;2023-02-16T11:39:14;100921.84;;;6.90;80.87
35519;BME280;21627;48.216;16.482;2023-02-16T11:41:55;100913.97;;;7.11;81.25
35519;BME280;21627;48.216;16.482;2023-02-16T11:44:38;100907.31;;;7.18;78.46
35519;BME280;21627;48.216;16.482;2023-02-16T11:47:32;100904.66;;;7.15;79.41
35519;BME280;21627;48.216;16.482;2023-02-16T11:50:27;100903.56;;;7.35;79.76
35519;BME280;21627;48.216;16.482;2023-02-16T11:55:45;100898.16;;;7.82;74.75
35519;BME280;21627;48.216;16.482;2023-02-16T11:58:26;100899.16;;;7.87;74.64
35519;BME280;21627;48.216;16.482;2023-02-16T12:01:31;100884.34;;;8.10;73.99
35519;BME280;21627;48.216;16.482;2023-02-16T12:07:30;100880.47;;;8.55;71.57
35519;BME280;21627;48.216;16.482;2023-02-16T12:10:09;100870.09;;;8.53;71.10
35519;BME280;21627;48.216;16.482;2023-02-16T12:25:16;100865.03;;;8.90;70.06
35519;BME280;21627;48.216;16.482;2023-02-16T12:27:57;100850.41;;;8.90;70.56
35519;BME280;21627;48.216;16.482;2023-02-16T12:30:59;100846.75;;;8.82;70.97
35519;BME280;21627;48.216;16.482;2023-02-16T12:37:15;100843.03;;;8.37;71.95
35519;BME280;21627;48.216;16.482;2023-02-16T12:40:15;100837.66;;;8.30;72.92
35519;BME280;21627;48.216;16.482;2023-02-16T12:45:44;100822.69;;;8.16;74.37
35519;BME280;21627;48.216;16.482;2023-02-16T12:51:21;100819.84;;;8.71;72.95
35519;BME280;21627;48.216;16.482;2023-02-16T12:54:03;100824.25;;;8.75;70.64
35519;BME280;21627;48.216;16.482;2023-02-16T12:56:50;100812.28;;;8.78;69.10
35519;BME280;21627;48.216;16.482;2023-02-16T12:59:36;100812.03;;;8.68;71.46
35519;BME280;21627;48.216;16.482;2023-02-16T13:02:25;100813.03;;;8.73;72.14
35519;BME280;21627;48.216;16.482;2023-02-16T13:07:42;100799.06;;;9.39;68.85
35519;BME280;21627;48.216;16.482;2023-02-16T13:10:29;100809.69;;;9.54;66.94
35519;BME280;21627;48.216;16.482;2023-02-16T13:13:13;100799.97;;;9.83;67.71
35519;BME280;21627;48.216;16.482;2023-02-16T13:16:26;100783.88;;;9.96;66.38
35519;BME280;21627;48.216;16.482;2023-02-16T13:18:58;100789.75;;;10.35;64.63
35519;BME280;21627;48.216;16.482;2023-02-16T13:24:29;100789.47;;;10.68;63.32
35519;BME280;21627;48.216;16.482;2023-02-16T13:44:48;100776.34;;;10.09;64.09
35519;BME280;21627;48.216;16.482;2023-02-16T13:47:25;100772.88;;;10.07;64.01
35519;BME280;21627;48.216;16.482;2023-02-16T13:52:51;100773.03;;;10.17;63.99
35519;BME280;21627;48.216;16.482;2023-02-16T13:55:32;100770.59;;;10.25;63.98
35519;BME280;21627;48.216;16.482;2023-02-16T14:00:45;100753.31;;;9.74;63.06
35519;BME280;21627;48.216;16.482;2023-02-16T14:05:48;100774.97;;;9.38;64.99
35519;BME280;21627;48.216;16.482;2023-02-16T14:15:57;100776.75;;;9.03;67.81
35519;BME280;21627;48.216;16.482;2023-02-16T14:18:39;100770.91;;;9.10;67.84
35519;BME280;21627;48.216;16.482;2023-02-16T14:21:39;100761.75;;;8.86;68.37
35519;BME280;21627;48.216;16.482;2023-02-16T14:34:45;100750.34;;;8.07;74.26
35519;BME280;21627;48.216;16.482;2023-02-16T14:39:47;100758.97;;;7.77;78.02
35519;BME280;21627;48.216;16.482;2023-02-16T14:42:35;100763.84;;;7.67;78.60
35519;BME280;21627;48.216;16.482;2023-02-16T14:45:13;100770.84;;;7.42;79.66
35519;BME280;21627;48.216;16.482;2023-02-16T14:54:14;100764.66;;;7.35;80.81
35519;BME280;21627;48.216;16.482;2023-02-16T14:56:55;100763.41;;;7.23;80.84
35519;BME280;21627;48.216;16.482;2023-02-16T15:02:40;100750.09;;;7.07;82.96
35519;BME280;21627;48.216;16.482;2023-02-16T15:05:26;100752.66;;;7.07;83.92
35519;BME280;21627;48.216;16.482;2023-02-16T15:08:08;100751.72;;;7.04;82.80
35519;BME280;21627;48.216;16.482;2023-02-16T15:10:38;100744.34;;;6.87;82.22
35519;BME280;21627;48.216;16.482;2023-02-16T15:13:06;100742.59;;;6.58;84.33
35519;BME280;21627;48.216;16.482;2023-02-16T15:15:48;100738.34;;;6.33;87.54
35519;BME280;21627;48.216;16.482;2023-02-16T15:18:33;100731.28;;;6.27;87.82
35519;BME280;21627;48.216;16.482;2023-02-16T15:21:04;100745.72;;;6.23;89.35
35519;BME280;21627;48.216;16.482;2023-02-16T15:23:33;100740.69;;;6.26;89.55
35519;BME280;21627;48.216;16.482;2023-02-16T15:26:14;100725.91;;;5.94;91.50
35519;BME280;21627;48.216;16.482;2023-02-16T15:29:12;100725.84;;;5.92;91.42
35519;BME280;21627;48.216;16.482;2023-02-16T15:31:47;100729.00;;;5.85;93.22
35519;BME280;21627;48.216;16.482;2023-02-16T15:34:33;100726.19;;;5.79;92.50
35519;BME280;21627;48.216;16.482;2023-02-16T15:37:27;100736.16;;;5.70;93.84
35519;BME280;21627;48.216;16.482;2023-02-16T15:40:24;100744.72;;;5.70;93.31
35519;BME280;21627;48.216;16.482;2023-02-16T15:42:54;100745.91;;;5.56;95.00
35519;BME280;21627;48.216;16.482;2023-02-16T15:45:33;100722.44;;;5.45;94.54
35519;BME280;21627;48.216;16.482;2023-02-16T15:48:22;100737.13;;;5.49;95.48
35519;BME280;21627;48.216;16.482;2023-02-16T15:51:06;100728.94;;;5.35;96.05
35519;BME280;21627;48.216;16.482;2023-02-16T15:53:51;100737.88;;;5.23;96.09
35519;BME280;21627;48.216;16.482;2023-02-16T15:56:50;100741.66;;;5.10;98.00
35519;BME280;21627;48.216;16.482;2023-02-16T16:04:59;100741.53;;;4.84;100.00
35519;BME280;21627;48.216;16.482;2023-02-16T16:07:33;100741.34;;;4.80;100.00
35519;BME280;21627;48.216;16.482;2023-02-16T16:10:20;100747.88;;;4.71;100.00